Time;durP1;ratioP1;P1;durP2;ratioP2;P2;SDS_P1;SDS_P2;PMS_P1;PMS_P2;Temp;Humidity;BMP_temperature;BMP_pressure;BME280_temperature;BME280_humidity;BME280_pressure;Samples;Min_cycle;Max_cycle;Signal;HPM_P1;HPM_P2
2023/02/25 00:00:44;;;;;;;2.60;1.50;;;8.60;99.90;;;;;;5057271;28;20584;-69
2023/02/25 00:03:46;;;;;;;3.13;2.00;;;8.60;99.90;;;;;;5048155;28;20839;-68
2023/02/25 00:06:55;;;;;;;4.60;1.90;;;8.60;99.90;;;;;;4978141;28;20610;-69
2023/02/25 00:09:37;;;;;;;2.10;1.57;;;8.60;99.90;;;;;;5001853;28;20475;-69
2023/02/25 00:12:27;;;;;;;2.33;1.37;;;8.60;99.90;;;;;;4997310;28;20451;-69
2023/02/25 00:15:23;;;;;;;2.90;1.30;;;8.60;99.90;;;;;;4976618;28;20475;-68
2023/02/25 00:18:22;;;;;;;3.50;2.37;;;8.60;99.90;;;;;;4984312;28;20456;-69
2023/02/25 00:21:16;;;;;;;;;;;;;;;;;;;;;
2023/02/25 00:25:03;;;;;;;2.73;1.80;;;8.60;99.90;;;;;;4955220;28;20467;-69
2023/02/25 00:32:02;;;;;;;2.50;1.40;;;8.60;99.90;;;;;;4988773;28;20507;-70
2023/02/25 00:34:45;;;;;;;2.13;1.37;;;8.60;99.90;;;;;;4999086;28;20529;-70
2023/02/25 00:40:55;;;;;;;3.77;1.53;;;8.60;99.90;;;;;;5018990;28;20559;-70
2023/02/25 00:44:31;;;;;;;2.30;1.70;;;8.50;99.90;;;;;;5043847;28;20482;-70
2023/02/25 00:47:20;;;;;;;6.27;1.47;;;8.50;99.90;;;;;;5046065;28;20629;-69
2023/02/25 00:50:13;;;;;;;3.57;1.03;;;8.50;99.90;;;;;;5043405;28;20820;-69
2023/02/25 00:53:17;;;;;;;3.30;1.57;;;8.50;99.90;;;;;;5059168;28;20447;-69
2023/02/25 00:56:20;;;;;;;;;;;;;;;;;;;;;
2023/02/25 01:00:15;;;;;;;4.20;1.73;;;8.50;99.90;;;;;;5038726;28;20564;-69
2023/02/25 01:03:22;;;;;;;4.27;1.37;;;8.50;99.90;;;;;;5045526;28;20427;-69
2023/02/25 01:07:12;;;;;;;2.37;1.50;;;8.50;99.90;;;;;;5032227;28;20489;-70
2023/02/25 01:10:17;;;;;;;2.40;1.70;;;8.50;99.90;;;;;;5039007;28;20460;-68
2023/02/25 01:13:03;;;;;;;2.47;1.10;;;8.50;99.90;;;;;;5041122;28;20486;-69
2023/02/25 01:15:51;;;;;;;2.08;1.25;;;8.50;99.90;;;;;;5042425;28;22022;-68
2023/02/25 01:19:08;;;;;;;1.97;1.40;;;8.50;99.90;;;;;;5048664;28;20214;-69
2023/02/25 01:22:00;;;;;;;4.20;1.63;;;8.50;99.90;;;;;;5005716;28;20562;-69
2023/02/25 01:25:28;;;;;;;3.53;1.33;;;8.50;99.90;;;;;;5046435;28;20507;-69
2023/02/25 01:32:45;;;;;;;;;;;;;;;;;;;;;
2023/02/25 01:36:21;;;;;;;2.73;1.57;;;8.50;99.90;;;;;;5024243;28;20467;-70
2023/02/25 01:39:21;;;;;;;4.30;1.53;;;8.50;99.90;;;;;;5023663;28;21050;-69
2023/02/25 01:45:53;;;;;;;3.07;1.77;;;8.50;99.90;;;;;;5043214;28;20481;-67
2023/02/25 01:49:07;;;;;;;3.20;1.70;;;8.50;99.90;;;;;;5054985;28;20455;-69
2023/02/25 01:52:12;;;;;;;2.80;1.13;;;8.50;99.90;;;;;;5042530;28;20463;-69
2023/02/25 01:55:08;;;;;;;2.13;1.20;;;8.40;99.90;;;;;;5047852;28;20619;-68
2023/02/25 02:02:18;;;;;;;3.93;1.47;;;8.40;99.90;;;;;;5014888;28;20293;-70
2023/02/25 02:05:56;;;;;;;2.75;1.30;;;8.40;99.90;;;;;;5044023;28;20469;-69
2023/02/25 02:09:55;;;;;;;3.93;2.53;;;8.40;99.90;;;;;;5026191;28;20224;-69
2023/02/25 02:13:09;;;;;;;3.17;1.20;;;8.40;99.90;;;;;;5042149;28;20433;-69
2023/02/25 02:16:43;;;;;;;2.40;1.52;;;8.40;99.90;;;;;;5033221;28;20849;-70
2023/02/25 02:20:34;;;;;;;2.00;1.45;;;8.40;99.90;;;;;;5036896;28;20238;-68
2023/02/25 02:24:10;;;;;;;3.92;2.05;;;8.40;99.90;;;;;;5069484;28;20211;-68
2023/02/25 02:27:11;;;;;;;1.13;1.03;;;8.40;99.90;;;;;;5022242;28;20693;-68
2023/02/25 02:30:20;;;;;;;2.57;1.50;;;8.40;99.90;;;;;;5064155;28;20468;-69
2023/02/25 02:33:26;;;;;;;1.53;1.43;;;8.40;99.90;;;;;;5044500;28;20464;-69
2023/02/25 02:40:28;;;;;;;1.13;1.03;;;8.40;99.90;;;;;;5058092;28;20555;-71
2023/02/25 02:43:39;;;;;;;1.77;1.50;;;8.40;99.90;;;;;;5044734;28;20476;-70
2023/02/25 02:46:57;;;;;;;3.05;1.23;;;8.40;99.90;;;;;;5028804;28;20468;-69
2023/02/25 02:53:25;;;;;;;4.00;1.20;;;8.40;99.90;;;;;;5059425;28;20501;-69
2023/02/25 02:56:29;;;;;;;4.40;1.37;;;8.30;99.90;;;;;;5040406;28;20477;-71
2023/02/25 02:59:54;;;;;;;4.83;1.17;;;8.30;99.90;;;;;;5054778;28;20473;-69
2023/02/25 03:03:02;;;;;;;3.05;1.15;;;8.30;99.90;;;;;;5051711;28;20469;-69
2023/02/25 03:06:07;;;;;;;3.00;1.30;;;8.30;99.90;;;;;;5050077;28;20399;-70
2023/02/25 03:13:22;;;;;;;;;;;;;;;;;;;;;
2023/02/25 03:20:15;;;;;;;2.30;1.17;;;8.30;99.90;;;;;;4942107;28;20384;-69
2023/02/25 03:23:40;;;;;;;4.40;1.60;;;8.30;99.90;;;;;;5046895;28;20547;-69
2023/02/25 03:27:55;;;;;;;4.55;1.20;;;8.30;99.90;;;;;;5047851;28;20468;-69
2023/02/25 03:31:26;;;;;;;2.78;1.00;;;8.30;99.90;;;;;;5062187;28;20393;-70
2023/02/25 03:34:43;;;;;;;3.53;1.10;;;8.30;99.90;;;;;;5022071;28;20241;-69
2023/02/25 03:38:16;;;;;;;;;;;;;;;;;;;;;
2023/02/25 03:41:19;;;;;;;3.28;1.65;;;8.30;99.90;;;;;;5041899;28;20196;-70
2023/02/25 03:47:41;;;;;;;1.83;1.70;;;8.30;99.90;;;;;;5013783;28;20503;-69
2023/02/25 03:50:32;;;;;;;;;;;;;;;;;;;;;
2023/02/25 03:54:01;;;;;;;3.22;1.17;;;8.30;99.90;;;;;;5050173;28;20222;-69
2023/02/25 03:57:12;;;;;;;2.25;1.33;;;8.30;99.90;;;;;;5045799;28;20210;-69
2023/02/25 04:00:14;;;;;;;1.85;0.82;;;8.20;99.90;;;;;;5035832;28;20240;-72
2023/02/25 04:03:19;;;;;;;3.17;1.30;;;8.30;99.90;;;;;;5051080;28;20200;-69
2023/02/25 04:06:34;;;;;;;2.33;1.30;;;8.30;99.90;;;;;;5043687;28;20462;-69
2023/02/25 04:09:50;;;;;;;1.77;1.30;;;8.20;99.90;;;;;;5036417;28;20522;-70
2023/02/25 04:13:00;;;;;;;1.73;0.90;;;8.20;99.90;;;;;;5043098;28;20449;-68
2023/02/25 04:15:48;;;;;;;3.35;1.27;;;8.20;99.90;;;;;;5048000;28;20445;-70
2023/02/25 04:22:19;;;;;;;3.77;1.50;;;8.20;99.90;;;;;;5041266;28;20221;-68
2023/02/25 04:25:12;;;;;;;1.27;1.08;;;8.20;99.90;;;;;;5061170;28;20498;-70
2023/02/25 04:28:42;;;;;;;2.85;1.45;;;8.20;99.90;;;;;;5062100;28;20657;-68
2023/02/25 04:32:18;;;;;;;4.55;1.60;;;8.20;99.90;;;;;;5033954;28;20194;-68
2023/02/25 04:35:20;;;;;;;5.03;1.63;;;8.20;99.90;;;;;;5042135;28;20673;-69
2023/02/25 04:38:38;;;;;;;6.05;2.92;;;8.20;99.90;;;;;;5034444;28;20468;-70
2023/02/25 04:41:50;;;;;;;1.23;1.00;;;8.20;99.90;;;;;;5039659;28;20200;-70
2023/02/25 04:45:17;;;;;;;2.03;1.17;;;8.20;99.90;;;;;;5043068;28;20633;-70
2023/02/25 04:48:22;;;;;;;4.63;1.30;;;8.20;99.90;;;;;;4928989;28;20233;-69
2023/02/25 04:51:39;;;;;;;2.22;1.20;;;8.20;99.90;;;;;;5021587;28;20341;-68
2023/02/25 04:55:04;;;;;;;5.80;1.65;;;8.20;99.90;;;;;;5050809;28;20254;-69
2023/02/25 04:57:54;;;;;;;;;;;;;;;;;;;;;
2023/02/25 05:04:35;;;;;;;3.85;1.63;;;8.10;99.90;;;;;;5046727;28;20221;-70
2023/02/25 05:07:27;;;;;;;2.30;0.80;;;8.10;99.90;;;;;;5046291;28;20704;-70
2023/02/25 05:10:16;;;;;;;5.82;2.10;;;8.10;99.90;;;;;;5043993;28;20218;-69
2023/02/25 05:12:54;;;;;;;2.25;1.67;;;8.10;99.90;;;;;;5042022;28;20194;-70
2023/02/25 05:15:49;;;;;;;4.40;1.42;;;8.10;99.90;;;;;;5045567;28;20249;-69
2023/02/25 05:19:05;;;;;;;2.72;1.23;;;8.10;99.90;;;;;;5061928;28;20497;-69
2023/02/25 05:22:09;;;;;;;2.88;1.20;;;8.10;99.90;;;;;;5023489;28;20737;-69
2023/02/25 05:24:59;;;;;;;3.25;1.20;;;8.10;99.90;;;;;;5044748;28;20300;-68
2023/02/25 05:28:37;;;;;;;2.20;1.45;;;8.10;99.90;;;;;;5047440;28;20213;-68
2023/02/25 05:31:57;;;;;;;1.40;1.25;;;8.10;99.90;;;;;;5065236;28;20190;-68
2023/02/25 05:34:47;;;;;;;3.40;1.10;;;8.10;99.90;;;;;;5064917;28;20219;-70
2023/02/25 05:42:00;;;;;;;2.80;1.02;;;8.10;99.90;;;;;;5039085;28;20188;-68
2023/02/25 05:45:16;;;;;;;2.05;1.20;;;8.10;99.90;;;;;;5042045;28;20422;-68
2023/02/25 05:48:20;;;;;;;5.35;1.10;;;8.10;99.90;;;;;;5062368;28;20578;-68
2023/02/25 05:51:35;;;;;;;4.50;1.70;;;8.10;99.90;;;;;;5049699;28;20712;-68
2023/02/25 05:54:39;;;;;;;1.80;0.90;;;8.10;99.90;;;;;;5042819;28;20215;-69
2023/02/25 05:57:08;;;;;;;4.03;1.65;;;8.10;99.90;;;;;;5042865;28;20213;-70
2023/02/25 05:59:36;;;;;;;1.50;1.10;;;8.10;99.90;;;;;;5052898;28;20230;-69
2023/02/25 06:02:05;;;;;;;2.05;1.50;;;8.10;99.90;;;;;;5054308;28;20194;-69
2023/02/25 06:04:33;;;;;;;2.38;1.83;;;8.00;99.90;;;;;;5062718;28;20271;-71
2023/02/25 06:07:03;;;;;;;3.03;1.00;;;8.00;99.90;;;;;;5047720;28;20706;-70
2023/02/25 06:09:33;;;;;;;1.70;1.05;;;8.10;99.90;;;;;;5047691;28;20242;-70
2023/02/25 06:12:03;;;;;;;1.85;1.17;;;8.10;99.90;;;;;;5051691;28;20202;-70
2023/02/25 06:14:32;;;;;;;1.80;1.07;;;8.00;99.90;;;;;;5065198;28;20642;-68
2023/02/25 06:17:00;;;;;;;3.17;1.27;;;8.00;99.90;;;;;;5046352;28;20468;-69
2023/02/25 06:19:28;;;;;;;1.07;0.97;;;8.10;99.90;;;;;;5047157;28;20684;-69
2023/02/25 06:21:57;;;;;;;1.50;1.10;;;8.00;99.90;;;;;;5053045;28;20904;-69
2023/02/25 06:24:25;;;;;;;2.15;1.27;;;8.00;99.90;;;;;;5043422;28;20524;-69
2023/02/25 06:26:53;;;;;;;3.42;1.42;;;8.00;99.90;;;;;;5050577;28;20221;-69
2023/02/25 06:29:23;;;;;;;2.15;1.23;;;8.00;99.90;;;;;;5048402;28;20227;-69
2023/02/25 06:31:52;;;;;;;4.05;1.40;;;8.00;99.90;;;;;;5049973;28;20198;-70
2023/02/25 06:34:20;;;;;;;3.13;1.05;;;8.00;99.90;;;;;;5051697;28;20615;-68
2023/02/25 06:36:49;;;;;;;1.25;0.88;;;8.00;99.90;;;;;;5067772;28;20580;-72
2023/02/25 06:39:17;;;;;;;2.50;0.90;;;8.00;99.90;;;;;;5036647;28;20578;-68
2023/02/25 06:41:45;;;;;;;2.85;1.00;;;8.00;99.90;;;;;;5064353;28;20688;-68
2023/02/25 06:44:14;;;;;;;2.08;1.98;;;8.00;99.90;;;;;;5049234;28;20218;-69
2023/02/25 06:46:44;;;;;;;4.35;2.00;;;8.00;99.90;;;;;;5049289;28;20428;-67
2023/02/25 06:49:13;;;;;;;2.05;0.93;;;8.00;99.90;;;;;;5046967;28;20226;-69
2023/02/25 06:51:41;;;;;;;5.05;1.30;;;8.00;99.90;;;;;;5049284;28;20232;-68
2023/02/25 06:54:10;;;;;;;3.85;1.30;;;8.00;99.90;;;;;;5052551;28;20628;-69
2023/02/25 06:56:38;;;;;;;1.70;1.07;;;8.00;99.90;;;;;;5048758;28;20290;-69
2023/02/25 06:59:07;;;;;;;2.45;1.42;;;8.00;99.90;;;;;;5062720;28;20530;-69
2023/02/25 07:01:36;;;;;;;2.17;1.70;;;8.00;99.90;;;;;;5047935;28;20191;-69
2023/02/25 07:04:06;;;;;;;4.03;1.00;;;8.00;99.90;;;;;;5053102;28;20993;-69
2023/02/25 07:06:34;;;;;;;5.22;1.25;;;8.00;99.90;;;;;;5045049;28;20502;-66
2023/02/25 07:09:03;;;;;;;3.67;1.23;;;8.00;99.90;;;;;;5040994;28;20249;-68
2023/02/25 07:11:34;;;;;;;2.70;1.13;;;8.00;99.90;;;;;;5038174;28;20202;-68
2023/02/25 07:14:03;;;;;;;2.15;1.25;;;7.90;99.90;;;;;;5044037;28;20249;-67
2023/02/25 07:16:33;;;;;;;4.47;1.85;;;8.00;99.90;;;;;;5047779;28;20233;-69
2023/02/25 07:19:02;;;;;;;4.95;1.17;;;7.90;99.90;;;;;;5065699;28;20625;-70
2023/02/25 07:21:32;;;;;;;1.52;1.02;;;7.90;99.90;;;;;;5049614;28;20199;-69
2023/02/25 07:24:00;;;;;;;3.58;1.48;;;7.90;99.90;;;;;;5044039;28;21415;-67
2023/02/25 07:26:29;;;;;;;3.58;1.52;;;7.90;99.90;;;;;;5040560;28;20734;-68
2023/02/25 07:28:58;;;;;;;2.60;1.38;;;7.90;99.90;;;;;;5037060;28;20277;-67
2023/02/25 07:31:28;;;;;;;2.87;1.33;;;7.90;99.90;;;;;;5037163;28;20204;-68
2023/02/25 07:34:02;;;;;;;1.52;0.77;;;7.90;99.90;;;;;;5042317;28;21050;-68
2023/02/25 07:36:34;;;;;;;4.28;1.05;;;7.90;99.90;;;;;;5060031;28;20233;-69
2023/02/25 07:39:03;;;;;;;4.70;1.50;;;7.90;99.90;;;;;;5065636;28;20216;-68
2023/02/25 07:41:32;;;;;;;4.80;2.08;;;7.90;99.90;;;;;;5041468;28;20672;-68
2023/02/25 07:44:08;;;;;;;2.15;0.95;;;7.90;99.90;;;;;;5041672;28;20226;-68
2023/02/25 07:46:37;;;;;;;4.53;1.40;;;7.90;99.90;;;;;;5041247;28;20224;-68
2023/02/25 07:49:06;;;;;;;2.97;1.20;;;7.90;99.90;;;;;;5040658;28;20228;-69
2023/02/25 07:51:37;;;;;;;3.33;1.48;;;7.90;99.90;;;;;;5058108;28;20220;-67
2023/02/25 07:54:06;;;;;;;5.55;1.50;;;7.90;99.90;;;;;;5056270;28;20218;-67
2023/02/25 07:56:35;;;;;;;5.18;2.13;;;7.90;99.90;;;;;;5062661;28;20586;-69
2023/02/25 07:59:03;;;;;;;2.88;1.83;;;7.90;99.90;;;;;;5058163;28;20735;-69
2023/02/25 08:01:33;;;;;;;2.97;1.38;;;7.90;99.90;;;;;;5048129;28;20206;-68
2023/02/25 08:04:04;;;;;;;5.93;1.70;;;7.90;99.90;;;;;;5046156;28;20586;-68
2023/02/25 08:06:37;;;;;;;2.05;1.02;;;7.90;99.90;;;;;;5049805;28;20218;-68
2023/02/25 08:09:06;;;;;;;1.02;0.70;;;7.90;99.90;;;;;;5045159;28;20694;-69
2023/02/25 08:11:35;;;;;;;2.53;1.23;;;7.90;99.90;;;;;;5046796;28;20201;-68
2023/02/25 08:14:03;;;;;;;3.22;1.13;;;7.90;99.90;;;;;;5045846;28;20217;-67
2023/02/25 08:16:33;;;;;;;2.78;1.20;;;7.90;99.90;;;;;;5046668;28;20225;-67
2023/02/25 08:19:02;;;;;;;8.43;1.70;;;7.90;99.90;;;;;;5043189;28;20285;-69
2023/02/25 08:21:31;;;;;;;6.88;2.65;;;7.80;99.90;;;;;;5035923;28;20456;-66
2023/02/25 08:24:01;;;;;;;3.05;1.80;;;7.80;99.90;;;;;;5039696;28;20221;-67
2023/02/25 08:26:29;;;;;;;3.67;1.90;;;7.80;99.90;;;;;;5065179;28;20234;-68
2023/02/25 08:28:58;;;;;;;8.68;1.90;;;7.80;99.90;;;;;;5044540;28;20213;-68
2023/02/25 08:31:27;;;;;;;4.05;1.70;;;7.80;99.90;;;;;;5060428;28;20222;-66
2023/02/25 08:33:58;;;;;;;3.83;1.42;;;7.80;99.90;;;;;;5041140;28;20306;-68
2023/02/25 08:36:28;;;;;;;6.65;1.60;;;7.80;99.90;;;;;;5045859;28;20206;-67
2023/02/25 08:38:58;;;;;;;6.85;1.60;;;7.80;99.90;;;;;;5046560;28;20241;-68
2023/02/25 08:41:29;;;;;;;5.70;1.75;;;7.80;99.90;;;;;;5063024;28;20198;-69
2023/02/25 08:43:59;;;;;;;7.82;1.52;;;7.80;99.90;;;;;;5042859;28;20295;-67
2023/02/25 08:46:30;;;;;;;3.67;1.90;;;7.80;99.90;;;;;;5045627;28;20304;-68
2023/02/25 08:49:00;;;;;;;4.15;1.48;;;7.80;99.90;;;;;;5051810;28;20307;-68
2023/02/25 08:51:32;;;;;;;6.07;1.70;;;7.80;99.90;;;;;;5058985;28;20200;-67
2023/02/25 08:54:03;;;;;;;3.90;1.45;;;7.80;99.90;;;;;;5045315;28;20591;-69
2023/02/25 08:56:33;;;;;;;2.10;1.40;;;7.80;99.90;;;;;;5046947;28;20230;-67
2023/02/25 08:59:02;;;;;;;6.97;1.88;;;7.80;99.90;;;;;;5044363;28;20241;-68
2023/02/25 09:01:43;;;;;;;6.20;2.00;;;7.80;99.90;;;;;;5047230;28;20193;-67
2023/02/25 09:04:13;;;;;;;4.30;1.52;;;7.80;99.90;;;;;;5055169;28;20218;-69
2023/02/25 09:06:42;;;;;;;2.63;1.30;;;7.80;99.90;;;;;;5046548;28;20224;-68
2023/02/25 09:09:12;;;;;;;1.93;1.50;;;7.80;99.90;;;;;;5034206;28;21624;-68
2023/02/25 09:11:42;;;;;;;2.70;1.58;;;7.80;99.90;;;;;;5061598;28;20847;-70
2023/02/25 09:14:11;;;;;;;2.88;1.20;;;7.80;99.90;;;;;;5046251;28;20244;-68
2023/02/25 09:16:39;;;;;;;3.80;1.02;;;7.80;99.90;;;;;;5046621;28;21581;-68
2023/02/25 09:19:09;;;;;;;4.70;2.00;;;7.80;99.90;;;;;;5041988;28;20214;-68
2023/02/25 09:21:39;;;;;;;1.80;1.50;;;7.80;99.90;;;;;;5047671;28;20811;-70
2023/02/25 09:24:09;;;;;;;6.95;1.45;;;7.80;99.90;;;;;;5046983;28;21117;-67
2023/02/25 09:26:37;;;;;;;4.00;1.40;;;7.90;99.90;;;;;;5046125;28;20223;-68
2023/02/25 09:29:08;;;;;;;1.70;1.02;;;7.90;99.90;;;;;;5045483;28;20211;-67
2023/02/25 09:31:38;;;;;;;2.10;1.30;;;7.80;99.90;;;;;;5043215;28;20202;-68
2023/02/25 09:34:14;;;;;;;2.60;1.90;;;7.90;99.90;;;;;;5045099;28;20226;-67
2023/02/25 09:36:43;;;;;;;2.38;1.35;;;7.80;99.90;;;;;;5063015;28;20459;-67
2023/02/25 09:39:12;;;;;;;2.28;1.65;;;7.80;99.90;;;;;;5056443;28;20573;-68
2023/02/25 09:41:48;;;;;;;3.53;1.67;;;7.80;99.90;;;;;;5046704;28;20647;-68
2023/02/25 09:44:24;;;;;;;2.10;1.00;;;7.80;99.90;;;;;;5043513;28;20229;-68
2023/02/25 09:46:56;;;;;;;3.70;1.60;;;7.80;99.90;;;;;;5041173;28;20619;-67
2023/02/25 09:49:31;;;;;;;3.00;1.45;;;7.80;99.90;;;;;;5020116;28;20222;-68
2023/02/25 09:52:07;;;;;;;3.30;1.25;;;7.80;99.90;;;;;;5041209;28;20481;-67
2023/02/25 09:54:43;;;;;;;4.30;1.60;;;7.80;99.90;;;;;;5044612;28;20252;-67
2023/02/25 09:57:17;;;;;;;5.13;1.58;;;7.80;99.90;;;;;;5056489;28;20810;-70
2023/02/25 09:59:48;;;;;;;7.32;1.60;;;7.80;99.90;;;;;;5057448;28;20340;-71
2023/02/25 10:02:26;;;;;;;3.80;1.65;;;7.80;99.90;;;;;;5048401;28;20197;-68
2023/02/25 10:05:13;;;;;;;7.50;1.85;;;7.80;99.90;;;;;;5045702;28;20248;-66
2023/02/25 10:07:51;;;;;;;8.55;1.58;;;7.80;99.90;;;;;;5061127;28;20712;-67
2023/02/25 10:10:25;;;;;;;1.83;1.20;;;7.80;99.90;;;;;;5043847;28;20523;-68
2023/02/25 10:12:59;;;;;;;2.35;1.10;;;7.80;99.90;;;;;;5035370;28;20473;-67
2023/02/25 10:15:44;;;;;;;3.45;1.00;;;7.80;99.90;;;;;;5047170;28;20227;-68
2023/02/25 10:18:33;;;;;;;5.65;1.30;;;7.80;99.90;;;;;;5042551;28;20203;-69
2023/02/25 10:21:11;;;;;;;1.92;1.75;;;7.80;99.90;;;;;;5060866;28;20312;-67
2023/02/25 10:23:51;;;;;;;4.32;1.00;;;7.80;99.90;;;;;;5043800;28;20217;-68
2023/02/25 10:26:23;;;;;;;13.40;2.28;;;7.70;99.90;;;;;;5045439;28;20723;-67
2023/02/25 10:28:56;;;;;;;2.83;2.03;;;7.70;99.90;;;;;;5041311;28;20218;-69
2023/02/25 10:31:26;;;;;;;4.53;1.77;;;7.70;99.90;;;;;;5047424;28;20228;-68
2023/02/25 10:33:58;;;;;;;3.10;1.33;;;7.80;99.90;;;;;;5049440;28;20219;-68
2023/02/25 10:36:30;;;;;;;4.07;1.58;;;7.80;99.90;;;;;;5049121;28;20219;-68
2023/02/25 10:38:59;;;;;;;4.68;1.58;;;7.70;99.90;;;;;;5058004;28;20225;-67
2023/02/25 10:41:28;;;;;;;4.85;1.30;;;7.70;99.90;;;;;;5065606;28;20201;-69
2023/02/25 10:43:57;;;;;;;4.50;1.27;;;7.70;99.90;;;;;;5046974;28;21021;-67
2023/02/25 10:46:33;;;;;;;3.75;1.45;;;7.70;99.90;;;;;;5047310;28;20218;-67
2023/02/25 10:49:13;;;;;;;2.63;1.40;;;7.70;99.90;;;;;;5045185;28;20640;-69
2023/02/25 10:52:01;;;;;;;3.60;1.30;;;7.80;99.90;;;;;;5063976;28;20286;-66
2023/02/25 10:54:32;;;;;;;2.28;1.45;;;7.70;99.90;;;;;;5045884;28;20222;-68
2023/02/25 10:57:07;;;;;;;4.10;1.40;;;7.70;99.90;;;;;;5048610;28;20209;-68
2023/02/25 10:59:38;;;;;;;5.72;1.70;;;7.70;99.90;;;;;;5065716;28;20222;-67
2023/02/25 11:02:22;;;;;;;3.17;1.50;;;7.70;99.90;;;;;;5064350;28;20190;-69
2023/02/25 11:04:52;;;;;;;4.65;2.17;;;7.70;99.90;;;;;;5060257;28;20737;-67
2023/02/25 11:07:28;;;;;;;4.07;1.13;;;7.70;99.90;;;;;;5066761;28;20309;-69
2023/02/25 11:10:09;;;;;;;6.13;1.48;;;7.70;99.90;;;;;;5049528;28;20570;-67
2023/02/25 11:12:42;;;;;;;8.07;4.28;;;7.70;99.90;;;;;;5049696;28;20197;-68
2023/02/25 11:15:31;;;;;;;6.15;2.20;;;7.70;99.90;;;;;;5048638;28;20285;-68
2023/02/25 11:18:21;;;;;;;7.45;2.17;;;7.70;99.90;;;;;;5045548;28;20573;-68
2023/02/25 11:20:52;;;;;;;3.38;2.25;;;7.70;99.90;;;;;;5044119;28;20259;-69
2023/02/25 11:23:23;;;;;;;3.30;1.50;;;7.70;99.90;;;;;;5042539;28;20208;-67
2023/02/25 11:25:56;;;;;;;1.42;1.10;;;7.60;99.90;;;;;;5065686;28;20721;-67
2023/02/25 11:28:30;;;;;;;3.83;1.42;;;7.70;99.90;;;;;;5059846;28;20196;-67
2023/02/25 11:31:09;;;;;;;2.20;1.50;;;7.60;99.90;;;;;;5065602;28;20895;-69
2023/02/25 11:33:44;;;;;;;4.25;1.50;;;7.60;99.90;;;;;;5047332;28;20225;-68
2023/02/25 11:36:13;;;;;;;2.15;1.27;;;7.60;99.90;;;;;;5043846;28;20368;-69
2023/02/25 11:38:42;;;;;;;2.92;0.93;;;7.70;99.90;;;;;;5045840;28;20227;-68
2023/02/25 11:41:21;;;;;;;3.53;1.40;;;7.70;99.90;;;;;;5049095;28;20193;-69
2023/02/25 11:43:50;;;;;;;2.67;1.23;;;7.70;99.90;;;;;;5055666;28;20697;-68
2023/02/25 11:46:22;;;;;;;2.05;1.33;;;7.70;99.90;;;;;;5048643;28;20218;-69
2023/02/25 11:48:56;;;;;;;1.30;1.10;;;7.70;99.90;;;;;;5063002;28;20252;-69
2023/02/25 11:51:27;;;;;;;3.15;1.88;;;7.70;99.90;;;;;;5047480;28;20186;-69
2023/02/25 11:54:12;;;;;;;4.07;1.75;;;7.70;99.90;;;;;;5041688;28;20482;-69
2023/02/25 11:56:47;;;;;;;2.97;1.17;;;7.70;99.90;;;;;;5043475;28;20251;-70
2023/02/25 11:59:32;;;;;;;1.55;1.40;;;7.70;99.90;;;;;;5059252;28;20220;-69
2023/02/25 12:02:26;;;;;;;2.45;1.50;;;7.80;99.90;;;;;;5061285;28;20205;-70
2023/02/25 12:05:28;;;;;;;6.28;1.27;;;7.80;99.90;;;;;;5061197;28;20677;-68
2023/02/25 12:08:16;;;;;;;3.55;1.15;;;7.70;99.90;;;;;;5044469;28;20404;-70
2023/02/25 12:11:21;;;;;;;3.03;2.00;;;7.80;99.90;;;;;;5044660;28;20206;-68
2023/02/25 12:14:45;;;;;;;2.78;1.20;;;7.80;99.90;;;;;;5058893;28;20985;-67
2023/02/25 12:17:55;;;;;;;1.60;1.00;;;7.80;99.90;;;;;;5025182;28;20321;-67
2023/02/25 12:21:05;;;;;;;2.50;1.30;;;7.80;99.90;;;;;;5043074;28;20230;-68
2023/02/25 12:24:15;;;;;;;1.60;1.20;;;7.80;99.90;;;;;;5017906;28;20319;-69
2023/02/25 12:27:19;;;;;;;4.53;1.45;;;7.80;99.90;;;;;;5042647;28;20210;-67
2023/02/25 12:30:29;;;;;;;3.90;1.35;;;7.80;99.90;;;;;;5032703;28;20233;-69
2023/02/25 12:33:13;;;;;;;2.60;1.45;;;7.80;99.90;;;;;;5032773;28;20210;-69
2023/02/25 12:36:16;;;;;;;2.97;1.70;;;7.80;99.90;;;;;;5044466;28;20227;-69
2023/02/25 12:39:23;;;;;;;1.90;1.10;;;7.90;99.90;;;;;;5057329;28;20301;-68
2023/02/25 12:42:03;;;;;;;4.18;1.73;;;7.80;99.90;;;;;;5035382;28;20668;-69
2023/02/25 12:44:52;;;;;;;1.40;1.30;;;7.80;99.90;;;;;;5047284;28;20232;-67
2023/02/25 12:47:29;;;;;;;3.45;1.40;;;7.80;99.90;;;;;;5044082;28;20301;-68
2023/02/25 12:50:25;;;;;;;2.25;1.08;;;7.80;99.90;;;;;;5038406;28;20288;-70
2023/02/25 12:53:18;;;;;;;3.10;1.50;;;7.80;99.90;;;;;;5042609;28;20622;-69
2023/02/25 12:56:07;;;;;;;1.95;1.40;;;7.80;99.90;;;;;;5044583;28;20539;-68
2023/02/25 12:58:47;;;;;;;4.78;1.67;;;7.80;99.90;;;;;;5044043;28;20211;-68
2023/02/25 13:01:42;;;;;;;1.30;1.10;;;7.80;99.90;;;;;;5043603;28;20292;-69
2023/02/25 13:04:38;;;;;;;2.40;1.30;;;7.80;99.90;;;;;;5061154;28;20283;-68
2023/02/25 13:07:29;;;;;;;2.70;1.30;;;7.80;99.90;;;;;;5058817;28;20217;-68
2023/02/25 13:10:20;;;;;;;1.73;1.30;;;7.90;99.90;;;;;;5040285;28;20526;-68
2023/02/25 13:13:00;;;;;;;2.15;1.40;;;7.80;99.90;;;;;;5044494;28;20199;-67
2023/02/25 13:15:35;;;;;;;3.92;1.67;;;7.90;99.90;;;;;;5062905;28;20202;-68
2023/02/25 13:18:15;;;;;;;1.50;1.05;;;7.90;99.90;;;;;;5059321;28;20598;-70
2023/02/25 13:20:58;;;;;;;3.60;1.38;;;7.90;99.90;;;;;;5047755;28;20716;-69
2023/02/25 13:23:38;;;;;;;2.05;1.15;;;7.90;99.90;;;;;;5038568;28;20202;-68
2023/02/25 13:26:32;;;;;;;1.52;1.15;;;7.90;99.90;;;;;;5065157;28;20296;-69
2023/02/25 13:29:22;;;;;;;2.17;1.42;;;7.90;99.90;;;;;;5041586;28;20222;-68
2023/02/25 13:32:00;;;;;;;1.30;1.10;;;7.90;99.90;;;;;;5042035;28;20189;-68
2023/02/25 13:34:40;;;;;;;1.55;1.00;;;7.90;99.90;;;;;;5045331;28;20228;-68
2023/02/25 13:37:36;;;;;;;2.33;0.85;;;7.90;99.90;;;;;;5044762;28;20233;-67
2023/02/25 13:40:25;;;;;;;1.73;1.00;;;7.90;99.90;;;;;;5064491;28;20221;-69
2023/02/25 13:43:37;;;;;;;2.42;1.42;;;7.90;99.90;;;;;;5063290;28;20693;-68
2023/02/25 13:46:29;;;;;;;1.83;1.23;;;7.80;99.90;;;;;;5057614;28;20264;-67
2023/02/25 13:49:19;;;;;;;1.73;0.70;;;7.90;99.90;;;;;;5063912;28;20226;-68
2023/02/25 13:52:08;;;;;;;2.85;1.45;;;7.90;99.90;;;;;;5040567;28;20957;-68
2023/02/25 13:55:02;;;;;;;1.60;1.20;;;7.90;99.90;;;;;;5060583;28;20274;-68
2023/02/25 13:57:42;;;;;;;2.20;1.30;;;7.80;99.90;;;;;;5051104;28;20511;-68
2023/02/25 14:00:37;;;;;;;1.43;1.33;;;7.90;99.90;;;;;;5044101;28;20196;-68
2023/02/25 14:03:52;;;;;;;2.20;1.10;;;7.90;99.90;;;;;;5041362;28;20857;-69
2023/02/25 14:06:34;;;;;;;1.95;1.13;;;7.90;99.90;;;;;;5034049;28;20213;-67
2023/02/25 14:09:18;;;;;;;1.60;1.05;;;7.90;99.90;;;;;;5047090;28;20233;-67
2023/02/25 14:11:57;;;;;;;2.78;0.98;;;7.90;99.90;;;;;;5063407;28;20195;-69
2023/02/25 14:15:20;;;;;;;3.30;1.35;;;7.90;99.90;;;;;;5048565;28;20223;-68
2023/02/25 14:18:20;;;;;;;3.17;1.40;;;7.90;99.90;;;;;;5037260;28;20199;-75
2023/02/25 14:21:02;;;;;;;12.20;1.90;;;7.80;99.90;;;;;;5051966;28;20479;-73
2023/02/25 14:23:44;;;;;;;3.20;1.40;;;7.80;99.90;;;;;;5044055;28;20450;-68
2023/02/25 14:26:27;;;;;;;5.00;1.50;;;7.80;99.90;;;;;;5051104;28;20308;-69
2023/02/25 14:29:08;;;;;;;2.95;1.20;;;7.80;99.90;;;;;;5041869;28;20706;-68
2023/02/25 14:31:52;;;;;;;5.13;1.30;;;7.80;99.90;;;;;;5051332;28;20207;-69
2023/02/25 14:34:34;;;;;;;2.28;0.82;;;7.80;99.90;;;;;;5059976;28;20227;-68
2023/02/25 14:37:35;;;;;;;2.38;1.25;;;7.80;99.90;;;;;;5045389;28;20226;-68
2023/02/25 14:40:18;;;;;;;2.35;1.00;;;7.80;99.90;;;;;;5041413;28;20687;-69
2023/02/25 14:43:03;;;;;;;4.85;1.20;;;7.80;99.90;;;;;;5064780;28;20228;-69
2023/02/25 14:45:37;;;;;;;3.08;1.88;;;7.80;99.90;;;;;;5036361;28;20706;-68
2023/02/25 14:48:10;;;;;;;3.17;0.87;;;7.80;99.90;;;;;;5042887;28;20234;-67
2023/02/25 14:50:46;;;;;;;3.45;1.27;;;7.80;99.90;;;;;;5042666;28;20439;-69
2023/02/25 14:53:47;;;;;;;4.60;1.63;;;7.80;99.90;;;;;;5039846;28;20204;-68
2023/02/25 14:56:47;;;;;;;2.67;1.00;;;7.80;99.90;;;;;;5039758;28;20277;-67
2023/02/25 14:59:47;;;;;;;2.42;1.25;;;7.80;99.90;;;;;;5044732;28;20590;-69
2023/02/25 15:02:40;;;;;;;5.13;0.98;;;7.80;99.90;;;;;;5039314;28;20638;-67
2023/02/25 15:05:37;;;;;;;2.28;1.05;;;7.80;99.90;;;;;;5039713;28;20250;-68
2023/02/25 15:08:39;;;;;;;0.82;0.80;;;7.80;99.90;;;;;;5038947;28;20730;-75
2023/02/25 15:11:31;;;;;;;2.60;0.93;;;7.80;99.90;;;;;;5039018;28;20202;-75
2023/02/25 15:14:30;;;;;;;1.23;1.02;;;7.80;99.90;;;;;;5057740;28;20244;-74
2023/02/25 15:17:27;;;;;;;2.72;0.85;;;7.80;99.90;;;;;;5038569;28;20219;-68
2023/02/25 15:20:16;;;;;;;3.80;1.30;;;7.80;99.90;;;;;;5035165;28;20218;-68
2023/02/25 15:22:55;;;;;;;1.98;1.30;;;7.80;99.90;;;;;;5040324;28;20236;-68
2023/02/25 15:25:39;;;;;;;1.65;1.00;;;7.80;99.90;;;;;;5061421;28;20471;-69
2023/02/25 15:28:36;;;;;;;1.33;1.00;;;7.80;99.90;;;;;;5038557;28;20697;-66
2023/02/25 15:31:37;;;;;;;1.77;0.93;;;7.80;99.90;;;;;;5046109;28;20672;-68
2023/02/25 15:34:34;;;;;;;3.20;1.10;;;7.80;99.90;;;;;;5042286;28;20233;-70
2023/02/25 15:37:26;;;;;;;2.70;1.17;;;7.80;99.90;;;;;;5062684;28;20230;-68
2023/02/25 15:39:57;;;;;;;2.28;1.02;;;7.80;99.90;;;;;;5057796;28;20217;-68
2023/02/25 15:42:49;;;;;;;1.50;0.95;;;7.80;99.90;;;;;;5055920;28;20204;-67
2023/02/25 15:45:37;;;;;;;1.60;0.73;;;7.80;99.90;;;;;;5045234;28;20226;-68